^^

..:: Storico WU ::..




Lo storico viene creato da WUnderground con i dati che la stazione Meteomincio invia al loro server. L' aggiornamento viene fatto ogni 5 minuti circa, tuttavia possono esserci intervalli pi¨ ampi a causa di errori, interruzioni di servizio o problemi nell' invio tramite FTP.


Storico stazione MeteoMincio
Giorno Sommario per Agosto 26, 2022 Unità:  Inglese    Metrico   Entrambi
Giorno Settimana Mese Anno
  Max: Min: Media:
Temperatura: 88.7 °F 72 °F 79.9 °F
Dew Point: 72 °F 65.8 °F 69.1 °F
Umidità: 86% 54.1% 71%
Velocità vento: 5.3mph 0mph 2.1mph
Raffica: 8.1mph - -
Direzione- - ESE
Pressione: 29.9 in 29.8 in -
Precipitazioni: 0 in    
 
 
Tabulato Dati per Agosto 26, 2022
Ora Temperatura Dew Point Pressione Direzione Velocità vento Raffica Umidità Intensità pioggia (oraria) Info solare Situazione
00:04 74.8 °F 66.7 °F 29.9 in Calm     76.2% 0 in 0 W/m2
00:09 74.7 °F 66.9 °F 29.9 in ESE 0.6 mph 2.3 mph 76.8% 0 in 0 W/m2
00:14 74.1 °F 66.6 °F 29.9 in ESE 1.2 mph 2.3 mph 77.2% 0 in 0 W/m2
00:19 73.9 °F 65.8 °F 29.9 in ESE 0.8 mph 2.3 mph 75.7% 0 in 0 W/m2
00:24 74.1 °F 66 °F 29.9 in East 1 mph 2.3 mph 75.8% 0 in 0 W/m2
00:29 73.9 °F 66 °F 29.9 in NNE 1.4 mph 2.3 mph 76% 0 in 0 W/m2
00:34 74.1 °F 66 °F 29.9 in NNE 1 mph 2.3 mph 76.2% 0 in 0 W/m2
00:39 74.1 °F 66.4 °F 29.9 in NNE 1 mph 3.5 mph 76.8% 0 in 0 W/m2
00:44 74.3 °F 66.6 °F 29.9 in NNE 0.7 mph 3 mph 77% 0 in 0 W/m2
00:49 74.3 °F 66.9 °F 29.9 in NNE 1.6 mph 4 mph 78% 0 in 0 W/m2
00:54 74.1 °F 67.1 °F 29.9 in NE 1.6 mph 4 mph 78.8% 0 in 0 W/m2
00:59 73.9 °F 67.1 °F 29.9 in NNE 1.9 mph 3.5 mph 79.3% 0 in 0 W/m2
01:04 73.9 °F 67.1 °F 29.9 in NE 1.9 mph 3.5 mph 79% 0 in 0 W/m2
01:09 73.9 °F 67.1 °F 29.9 in NE 1.7 mph 4 mph 79% 0 in 0 W/m2
01:14 73.9 °F 66.9 °F 29.9 in NNE 2.3 mph 4 mph 79% 0 in 0 W/m2
01:19 73.9 °F 67.1 °F 29.9 in NNE 1.2 mph 4 mph 79% 0 in 0 W/m2
01:24 73.9 °F 66.9 °F 29.9 in NNE 1.3 mph 3.5 mph 78.8% 0 in 0 W/m2
01:29 74.1 °F 66.9 °F 29.9 in North 1.6 mph 4 mph 78% 0 in 0 W/m2
01:34 74.1 °F 66.9 °F 29.9 in North 2.5 mph 4 mph 78.1% 0 in 0 W/m2
01:39 74.1 °F 66.7 °F 29.9 in North 2.1 mph 4 mph 78% 0 in 0 W/m2
01:44 74.1 °F 66.7 °F 29.9 in North 3.5 mph 7 mph 78% 0 in 0 W/m2
01:49 74.1 °F 66.7 °F 29.9 in North 3.9 mph 7 mph 77.7% 0 in 0 W/m2
01:54 74.3 °F 66.6 °F 29.9 in North 3.1 mph 6 mph 77% 0 in 0 W/m2
01:59 74.5 °F 66.7 °F 29.9 in North 3.4 mph 6 mph 77% 0 in 0 W/m2
02:04 74.7 °F 66.9 °F 29.9 in North 3.9 mph 7 mph 76.8% 0 in 0 W/m2
02:09 75 °F 66.9 °F 29.9 in North 3.6 mph 6 mph 76% 0 in 0 W/m2
02:14 75.2 °F 67.1 °F 29.9 in NNE 3.4 mph 7 mph 76.3% 0 in 0 W/m2
02:19 75 °F 67.3 °F 29.9 in NNE 3.5 mph 7 mph 77% 0 in 0 W/m2
02:24 74.8 °F 67.5 °F 29.9 in NNE 4.1 mph 6.9 mph 77.5% 0 in 0 W/m2
02:29 74.8 °F 67.5 °F 29.9 in NNE 4.4 mph 7 mph 78% 0 in 0 W/m2
02:34 74.7 °F 67.6 °F 29.9 in NE 4.1 mph 7 mph 78.8% 0 in 0 W/m2
02:39 74.7 °F 68 °F 29.9 in NE 5 mph 8.1 mph 79.7% 0 in 0 W/m2
02:44 74.7 °F 68 °F 29.9 in NE 4.7 mph 8.1 mph 80.2% 0 in 0 W/m2
02:49 74.5 °F 68.4 °F 29.9 in NE 4.3 mph 8 mph 81% 0 in 0 W/m2
02:54 74.3 °F 68.2 °F 29.9 in NNE 4.3 mph 7 mph 81% 0 in 0 W/m2
02:59 74.3 °F 68.2 °F 29.9 in NNE 4.3 mph 7 mph 81% 0 in 0 W/m2
03:04 74.5 °F 68.2 °F 29.9 in NNE 3.5 mph 6 mph 81% 0 in 0 W/m2
03:09 74.5 °F 68.4 °F 29.9 in NNE 3 mph 6 mph 81% 0 in 0 W/m2
03:14 74.5 °F 68.4 °F 29.9 in NNE 2.7 mph 5 mph 81% 0 in 0 W/m2
03:19 74.5 °F 68.4 °F 29.9 in NE 3.1 mph 5 mph 81% 0 in 0 W/m2
03:24 74.5 °F 68.4 °F 29.9 in NE 3.4 mph 5 mph 81% 0 in 0 W/m2
03:29 74.5 °F 68.4 °F 29.9 in NE 3.2 mph 5 mph 81% 0 in 0 W/m2
03:34 74.5 °F 68.2 °F 29.9 in NE 1.9 mph 5 mph 81% 0 in 0 W/m2
03:39 74.3 °F 68.2 °F 29.9 in NE 1.8 mph 3.5 mph 81% 0 in 0 W/m2
03:44 74.3 °F 68.2 °F 29.9 in NNE 1.6 mph 3.5 mph 81% 0 in 0 W/m2
03:49 74.3 °F 68.2 °F 29.9 in NNE 2.1 mph 4.6 mph 81% 0 in 0 W/m2
03:54 74.5 °F 68.2 °F 29.9 in NNE 1.9 mph 5 mph 81% 0 in 0 W/m2
03:59 74.7 °F 68.4 °F 29.9 in North 1.6 mph 3.5 mph 81% 0 in 0 W/m2
04:04 74.7 °F 68.4 °F 29.9 in North 0.9 mph 3.5 mph 80.6% 0 in 0 W/m2
04:09 74.8 °F 68.4 °F 29.9 in NNW 1.1 mph 3 mph 80.3% 0 in 0 W/m2
04:14 74.7 °F 68.4 °F 29.9 in NNE 1.5 mph 3.5 mph 80.8% 0 in 0 W/m2
04:19 74.7 °F 68.4 °F 29.9 in NNE 2.2 mph 4 mph 80.6% 0 in 0 W/m2
04:24 74.7 °F 68 °F 29.9 in NE 2.8 mph 4 mph 80% 0 in 0 W/m2
04:29 74.5 °F 68.2 °F 29.9 in NE 2.4 mph 4 mph 80.8% 0 in 0 W/m2
04:34 74.3 °F 68 °F 29.9 in NE 3 mph 4 mph 81% 0 in 0 W/m2
04:39 74.1 °F 68.2 °F 29.9 in ENE 3.9 mph 6 mph 81.7% 0 in 0 W/m2
04:44 73.9 °F 68.2 °F 29.9 in NE 3.2 mph 6 mph 82% 0 in 0 W/m2
04:49 73.9 °F 68.2 °F 29.9 in NE 2.9 mph 4 mph 82% 0 in 0 W/m2
04:54 73.8 °F 68.4 °F 29.9 in ENE 3.9 mph 7 mph 82.8% 0 in 0 W/m2
04:59 73.9 °F 68.4 °F 29.9 in NE 3.7 mph 7 mph 82.8% 0 in 0 W/m2
05:04 73.8 °F 68.4 °F 29.9 in NE 3 mph 5 mph 83% 0 in 0 W/m2
05:09 73.8 °F 68.2 °F 29.9 in NE 2.8 mph 5 mph 83% 0 in 0 W/m2
05:14 73.8 °F 68.2 °F 29.9 in NE 2.5 mph 5 mph 82.8% 0 in 0 W/m2
05:19 73.6 °F 68 °F 29.9 in NE 2.8 mph 4 mph 82.8% 0 in 0 W/m2
05:24 73.6 °F 68.2 °F 29.8 in NE 3.3 mph 5 mph 83% 0 in 0 W/m2
05:29 73.6 °F 68 °F 29.8 in NE 3.4 mph 5 mph 83% 0 in 0 W/m2
05:34 73.6 °F 68 °F 29.8 in NE 2.7 mph 5 mph 83% 0 in 0 W/m2
05:39 73.4 °F 67.8 °F 29.8 in NNE 2.8 mph 5 mph 83% 0 in 0 W/m2
05:44 73.2 °F 68 °F 29.8 in North 2.9 mph 5 mph 83.9% 0 in 0 W/m2
05:49 73.2 °F 68.2 °F 29.8 in NE 2.7 mph 5 mph 84% 0 in 0 W/m2
05:54 73.2 °F 68.2 °F 29.8 in NNE 3.4 mph 6 mph 84% 0 in 0 W/m2
05:59 73.2 °F 68 °F 29.8 in NNE 3.4 mph 6 mph 84% 0 in 0 W/m2
06:04 73 °F 68 °F 29.8 in NNE 2.7 mph 6 mph 84% 0 in 0 W/m2
06:09 72.9 °F 67.8 °F 29.8 in NE 2.3 mph 5 mph 84.2% 0 in 0 W/m2
06:14 72.7 °F 67.8 °F 29.8 in NE 2.2 mph 5 mph 85% 0 in 0 W/m2
06:19 72.5 °F 67.8 °F 29.8 in NE 2.1 mph 4 mph 85% 0 in 0 W/m2
06:24 72.5 °F 67.8 °F 29.8 in NE 2.1 mph 3.5 mph 85.5% 0 in 0 W/m2
06:29 72.3 °F 68 °F 29.8 in ENE 1.7 mph 3.5 mph 86% 0 in 0 W/m2
06:34 72.1 °F 67.6 °F 29.8 in ENE 2.2 mph 3.5 mph 86% 0 in 5 W/m2
06:39 72 °F 67.6 °F 29.8 in NE 2.7 mph 5 mph 86% 0 in 9 W/m2
06:44 72.1 °F 67.6 °F 29.8 in NE 2.6 mph 5 mph 86% 0 in 14 W/m2
06:49 72.3 °F 67.8 °F 29.8 in NNE 1.7 mph 5 mph 86% 0 in 19 W/m2
06:54 72.3 °F 68 °F 29.8 in NNE 0.9 mph 3 mph 86% 0 in 26 W/m2
06:59 72.7 °F 68.2 °F 29.8 in NNE 0.9 mph 2.3 mph 85.4% 0 in 32 W/m2
07:04 72.9 °F 68 °F 29.8 in NNE 1.5 mph 3.5 mph 85% 0 in 35 W/m2
07:09 72.9 °F 68 °F 29.9 in North 1.7 mph 3.5 mph 85% 0 in 37 W/m2
07:14 72.9 °F 68 °F 29.9 in North 1.8 mph 4 mph 85% 0 in 40 W/m2
07:19 73 °F 68.2 °F 29.9 in NNW 1.9 mph 4 mph 85% 0 in 44 W/m2
07:24 73.2 °F 68.4 °F 29.9 in NNW 1.2 mph 3 mph 85% 0 in 47 W/m2
07:29 73.2 °F 68.4 °F 29.9 in NNW 0.5 mph 2.3 mph 84.6% 0 in 53 W/m2
07:34 73.6 °F 68.5 °F 29.9 in North 0.5 mph 2.3 mph 84% 0 in 60 W/m2
07:39 73.8 °F 68.5 °F 29.9 in NNW 1.3 mph 2.3 mph 83.4% 0 in 69 W/m2
07:44 74.1 °F 68.5 °F 29.9 in North 0.8 mph 2.3 mph 83% 0 in 79 W/m2
07:49 74.1 °F 68.5 °F 29.9 in NNE 1.3 mph 2.3 mph 83.1% 0 in 88 W/m2
07:54 74.1 °F 68.5 °F 29.9 in NNE 1.5 mph 3.5 mph 83% 0 in 105 W/m2
07:59 74.7 °F 68.7 °F 29.9 in NNE 1.7 mph 3.5 mph 81.6% 0 in 118 W/m2
08:04 75.2 °F 68.9 °F 29.9 in North 0.7 mph 3.5 mph 80.9% 0 in 134 W/m2
08:09 75.6 °F 68.7 °F 29.9 in North 0.6 mph 3.5 mph 79.4% 0 in 149 W/m2
08:14 75.9 °F 68.9 °F 29.9 in North 0.1 mph 1.2 mph 78.6% 0 in 162 W/m2
08:19 76.3 °F 68.7 °F 29.9 in NW 0.4 mph 1.2 mph 77% 0 in 176 W/m2
08:24 76.5 °F 68.9 °F 29.9 in WSW 1.3 mph 3.5 mph 77.5% 0 in 190 W/m2
08:29 76.5 °F 69.8 °F 29.9 in SW 2.4 mph 4 mph 79.7% 0 in 200 W/m2
08:34 76.5 °F 69.6 °F 29.9 in WSW 1.9 mph 4 mph 79.4% 0 in 207 W/m2
08:39 76.5 °F 69.6 °F 29.9 in West 1.6 mph 3.5 mph 79% 0 in 225 W/m2
08:44 76.6 °F 69.6 °F 29.9 in West 1.2 mph 2.3 mph 78.7% 0 in 239 W/m2
08:49 77 °F 69.4 °F 29.9 in South 1.3 mph 2.3 mph 77.5% 0 in 253 W/m2
08:54 77.2 °F 69.3 °F 29.9 in ESE 1.2 mph 2.3 mph 76.5% 0 in 265 W/m2
08:59 77.7 °F 69.4 °F 29.9 in East 1.2 mph 2.3 mph 75.6% 0 in 283 W/m2
09:04 77.9 °F 68 °F 29.9 in ESE 1.2 mph 2.3 mph 71.7% 0 in 294 W/m2
09:09 78.1 °F 68.5 °F 29.9 in East 1.1 mph 3.5 mph 72.7% 0 in 311 W/m2
09:14 78.3 °F 69.3 °F 29.9 in ESE 2 mph 3.5 mph 74% 0 in 329 W/m2
09:19 78.3 °F 69.3 °F 29.9 in ESE 1.6 mph 4 mph 74.1% 0 in 339 W/m2
09:24 78.3 °F 68.5 °F 29.9 in East 1.7 mph 4 mph 72.4% 0 in 360 W/m2
09:29 78.6 °F 68.4 °F 29.9 in ESE 1.6 mph 3.5 mph 71% 0 in 371 W/m2
09:34 78.6 °F 68.7 °F 29.9 in SE 1.6 mph 3.5 mph 71.7% 0 in 392 W/m2
09:39 79 °F 68.5 °F 29.9 in SE 1.6 mph 3.5 mph 70.6% 0 in 404 W/m2
09:44 78.8 °F 68.2 °F 29.9 in SSW 1.1 mph 3 mph 70% 0 in 424 W/m2
09:49 79.2 °F 68.7 °F 29.9 in NE 1.6 mph 4 mph 70.5% 0 in 438 W/m2
09:54 79.5 °F 68.7 °F 29.9 in ENE 2.3 mph 4 mph 69.4% 0 in 450 W/m2
09:59 79.7 °F 68.7 °F 29.9 in ENE 2.5 mph 5 mph 69.3% 0 in 452 W/m2
10:04 79.7 °F 68.9 °F 29.9 in ENE 2.1 mph 5 mph 69.7% 0 in 424 W/m2
10:09 79.9 °F 69.3 °F 29.9 in East 2.2 mph 5 mph 70.2% 0 in 476 W/m2
10:14 80.2 °F 69.3 °F 29.9 in East 1.9 mph 4 mph 69.5% 0 in 487 W/m2
10:19 80.6 °F 70.2 °F 29.9 in ENE 2.2 mph 6 mph 70.3% 0 in 499 W/m2
10:24 81 °F 69.8 °F 29.9 in East 3.3 mph 6 mph 69.1% 0 in 503 W/m2
10:29 81 °F 69.8 °F 29.9 in East 3 mph 5.8 mph 69.1% 0 in 503 W/m2
10:34 81.1 °F 70.2 °F 29.9 in ENE 3.2 mph 6 mph 69.6% 0 in 519 W/m2
10:39 81.7 °F 70.3 °F 29.9 in East 3.4 mph 7 mph 68.7% 0 in 526 W/m2
10:44 81.5 °F 70.2 °F 29.9 in East 3.3 mph 7 mph 68.8% 0 in 561 W/m2
10:49 81.9 °F 70.7 °F 29.9 in ENE 2.3 mph 5 mph 69.2% 0 in 573 W/m2
10:54 82.2 °F 70.3 °F 29.9 in East 2.6 mph 6 mph 67.2% 0 in 585 W/m2
10:59 82.8 °F 70.3 °F 29.9 in ENE 4.8 mph 7 mph 66.2% 0 in 605 W/m2
11:04 83.1 °F 70.3 °F 29.9 in East 5.2 mph 8.1 mph 65.6% 0 in 612 W/m2
11:09 82.9 °F 69.8 °F 29.9 in ESE 4 mph 8 mph 65% 0 in 610 W/m2
11:14 83.1 °F 70.7 °F 29.9 in ESE 3.7 mph 7 mph 66.1% 0 in 548 W/m2
11:19 83.3 °F 69.6 °F 29.9 in ESE 4 mph 6 mph 63.6% 0 in 629 W/m2
11:24 83.1 °F 69.6 °F 29.9 in ESE 2.1 mph 6 mph 63.8% 0 in 638 W/m2
11:29 83.5 °F 69.8 °F 29.9 in East 2.8 mph 6.9 mph 63.5% 0 in 649 W/m2
11:34 83.5 °F 69.8 °F 29.9 in East 3.7 mph 8.1 mph 63.6% 0 in 659 W/m2
11:39 83.7 °F 69.6 °F 29.9 in ESE 4.4 mph 8 mph 62.8% 0 in 670 W/m2
11:44 83.8 °F 70 °F 29.9 in ENE 3.4 mph 7 mph 63.5% 0 in 682 W/m2
11:49 84.4 °F 71.1 °F 29.9 in ESE 2.2 mph 7 mph 64.6% 0 in 691 W/m2
11:54 85.1 °F 71.1 °F 29.9 in ESE 2.5 mph 5 mph 63% 0 in 701 W/m2
11:59 85.1 °F 70.5 °F 29.9 in ENE 4 mph 6 mph 62.1% 0 in 701 W/m2
12:04 84.9 °F 71.6 °F 29.9 in East 2.3 mph 6 mph 64.2% 0 in 701 W/m2
12:09 84.9 °F 70.9 °F 29.9 in ENE 2.9 mph 6 mph 62.7% 0 in 701 W/m2
12:14 85.1 °F 69.8 °F 29.8 in NE 3.4 mph 6 mph 60.6% 0 in 717 W/m2
12:19 85.1 °F 69.8 °F 29.8 in East 3.8 mph 6 mph 60.2% 0 in 742 W/m2
12:24 85.5 °F 70 °F 29.8 in ESE 3 mph 7 mph 60% 0 in 772 W/m2
12:29 85.6 °F 69.8 °F 29.8 in East 4 mph 7 mph 59.4% 0 in 772 W/m2
12:34 85.6 °F 69.4 °F 29.8 in ENE 2.9 mph 7 mph 58.7% 0 in 722 W/m2
12:39 85.6 °F 70 °F 29.8 in NE 2.1 mph 5 mph 59.7% 0 in 729 W/m2
12:44 85.5 °F 68.7 °F 29.8 in SE 3.4 mph 5 mph 57.4% 0 in 763 W/m2
12:49 85.8 °F 69.6 °F 29.8 in South 3.2 mph 7 mph 58.6% 0 in 773 W/m2
12:54 86 °F 69.8 °F 29.8 in ESE 4.9 mph 7 mph 58.5% 0 in 770 W/m2
12:59 85.6 °F 69.1 °F 29.8 in SE 4.8 mph 8.1 mph 57.7% 0 in 772 W/m2
13:04 86.4 °F 70.5 °F 29.8 in ESE 4 mph 8.1 mph 59.4% 0 in 772 W/m2
13:09 86.2 °F 68.9 °F 29.8 in East 3.8 mph 7 mph 56.7% 0 in 770 W/m2
13:14 86.4 °F 69.3 °F 29.8 in ENE 3 mph 5 mph 56.7% 0 in 779 W/m2
13:19 86.7 °F 69.6 °F 29.8 in East 3 mph 5 mph 57% 0 in 779 W/m2
13:24 86.7 °F 69.8 °F 29.8 in East 3 mph 5 mph 57.2% 0 in 793 W/m2
13:29 86.7 °F 69.8 °F 29.8 in ESE 2.9 mph 7 mph 57.5% 0 in 795 W/m2
13:34 86.5 °F 69.3 °F 29.8 in ESE 4.3 mph 7 mph 56.6% 0 in 812 W/m2
13:39 86.7 °F 69.1 °F 29.8 in East 4 mph 7 mph 56% 0 in 812 W/m2
13:44 87.1 °F 69.3 °F 29.8 in NE 4 mph 6 mph 55.6% 0 in 780 W/m2
13:49 87.1 °F 69.6 °F 29.8 in ESE 3.4 mph 6 mph 56.4% 0 in 789 W/m2
13:54 87.3 °F 69.4 °F 29.8 in East 3 mph 8.1 mph 55.7% 0 in 807 W/m2
13:59 87.3 °F 69.4 °F 29.8 in NE 3.3 mph 8.1 mph 55.6% 0 in 758 W/m2
14:04 87.1 °F 68.9 °F 29.8 in East 1.7 mph 4 mph 55.2% 0 in 647 W/m2
14:09 86.9 °F 69.4 °F 29.8 in ENE 1.9 mph 5 mph 56.1% 0 in 598 W/m2
14:14 86.7 °F 69.8 °F 29.8 in East 1.2 mph 5 mph 57.1% 0 in 640 W/m2
14:19 87.1 °F 69.6 °F 29.8 in ESE 1.9 mph 7 mph 56.2% 0 in 554 W/m2
14:24 86.5 °F 69.3 °F 29.8 in ESE 3.5 mph 7 mph 56.6% 0 in 520 W/m2
14:29 86.5 °F 69.3 °F 29.8 in SE 2.5 mph 7 mph 56.5% 0 in 729 W/m2
14:34 87.1 °F 69.3 °F 29.8 in South 2.3 mph 4 mph 55.7% 0 in 745 W/m2
14:39 87.4 °F 69.4 °F 29.8 in ESE 3.7 mph 8 mph 55.3% 0 in 745 W/m2
14:44 87.1 °F 69.6 °F 29.8 in ESE 5.3 mph 8.1 mph 56% 0 in 543 W/m2
14:49 86.7 °F 69.6 °F 29.8 in ESE 4.3 mph 8.1 mph 56.8% 0 in 517 W/m2
14:54 87.3 °F 69.4 °F 29.8 in South 2.5 mph 7 mph 55.7% 0 in 680 W/m2
14:59 87.3 °F 68.7 °F 29.8 in SE 2.4 mph 5 mph 54.2% 0 in 680 W/m2
15:04 86.9 °F 69.3 °F 29.8 in East 2.4 mph 5 mph 55.8% 0 in 766 W/m2
15:09 86.9 °F 68.9 °F 29.8 in East 2.8 mph 5 mph 55.2% 0 in 745 W/m2
15:14 87.1 °F 69.3 °F 29.8 in East 3.5 mph 5 mph 55.7% 0 in 670 W/m2
15:19 87.3 °F 68.9 °F 29.8 in East 3.4 mph 5 mph 54.5% 0 in 714 W/m2
15:24 87.6 °F 69.3 °F 29.8 in East 2.5 mph 5 mph 54.6% 0 in 714 W/m2
15:29 88 °F 69.4 °F 29.8 in East 2.7 mph 7 mph 54.3% 0 in 693 W/m2
15:34 88 °F 69.8 °F 29.8 in East 4.3 mph 7 mph 54.7% 0 in 647 W/m2
15:38 87.6 °F 69.4 °F 29.8 in East 3.9 mph 7 mph 54.9% 0 in 552 W/m2
15:44 87.8 °F 70.2 °F 29.8 in ENE 3.7 mph 6 mph 55.8% 0 in 494 W/m2
15:49 88 °F 70.7 °F 29.8 in East 2.6 mph 6 mph 56.9% 0 in 527 W/m2
15:54 87.6 °F 70.3 °F 29.8 in ESE 3.4 mph 5 mph 56.5% 0 in 490 W/m2
15:59 87.6 °F 69.6 °F 29.8 in East 3 mph 5 mph 55.3% 0 in 471 W/m2
16:04 88 °F 70.2 °F 29.8 in East 3.1 mph 5 mph 55.9% 0 in 487 W/m2
16:09 88 °F 70.5 °F 29.8 in East 2.9 mph 6 mph 56.5% 0 in 487 W/m2
16:14 87.6 °F 70 °F 29.8 in ESE 3.8 mph 6 mph 56% 0 in 408 W/m2
16:19 87.1 °F 70 °F 29.8 in East 3.7 mph 6 mph 57% 0 in 396 W/m2
16:24 87.1 °F 70 °F 29.8 in ENE 2.9 mph 6 mph 56.8% 0 in 369 W/m2
16:29 87.1 °F 70 °F 29.8 in East 2.9 mph 5 mph 57% 0 in 311 W/m2
16:34 86.9 °F 70.2 °F 29.8 in East 3.4 mph 5 mph 57.6% 0 in 330 W/m2
16:39 86.7 °F 70.7 °F 29.8 in ENE 3 mph 5 mph 59.1% 0 in 267 W/m2
16:44 86.7 °F 70.2 °F 29.8 in ENE 3.2 mph 5 mph 58.1% 0 in 239 W/m2
16:49 86.5 °F 70.5 °F 29.8 in ENE 3.2 mph 5 mph 58.8% 0 in 332 W/m2
16:54 86.9 °F 71.1 °F 29.8 in East 2.5 mph 3.5 mph 59.3% 0 in 571 W/m2
16:59 88 °F 70.5 °F 29.8 in NE 2.2 mph 5 mph 56.5% 0 in 601 W/m2
17:04 88.5 °F 70.9 °F 29.8 in NE 2.5 mph 5 mph 55.9% 0 in 598 W/m2
17:09 88.7 °F 70.3 °F 29.8 in NE 2.4 mph 5 mph 54.8% 0 in 571 W/m2
17:14 88.7 °F 70.2 °F 29.8 in ENE 2.4 mph 6 mph 54.5% 0 in 559 W/m2
17:19 88.5 °F 70.3 °F 29.8 in ENE 2.4 mph 6 mph 55% 0 in 540 W/m2
17:24 88.3 °F 69.6 °F 29.8 in ENE 2.8 mph 6 mph 54.1% 0 in 483 W/m2
17:29 87.8 °F 69.8 °F 29.8 in ENE 3.7 mph 6 mph 55.3% 0 in 285 W/m2
17:34 87.6 °F 70 °F 29.8 in NE 2.1 mph 6 mph 56.2% 0 in 267 W/m2
17:39 87.3 °F 70 °F 29.8 in ESE 1.7 mph 5 mph 56.6% 0 in 162 W/m2
17:44 87.1 °F 70.3 °F 29.8 in SE 1.3 mph 5 mph 57.6% 0 in 162 W/m2
17:49 87.1 °F 70.5 °F 29.8 in SSE 1.1 mph 3.5 mph 58.2% 0 in 162 W/m2
17:54 86.7 °F 69.8 °F 29.8 in South 1.5 mph 3.5 mph 57.5% 0 in 151 W/m2
17:59 86.5 °F 69.1 °F 29.8 in South 1.6 mph 3.5 mph 56.1% 0 in 114 W/m2
18:04 86.5 °F 69.8 °F 29.8 in ESE 1 mph 3.5 mph 57.6% 0 in 105 W/m2
18:09 86.4 °F 70 °F 29.8 in ENE 1.2 mph 2.3 mph 58.2% 0 in 111 W/m2
18:14 86.2 °F 70.7 °F 29.8 in East 0.9 mph 2.3 mph 59.8% 0 in 223 W/m2
18:19 86.5 °F 70 °F 29.8 in East 1.1 mph 3.5 mph 58.1% 0 in 271 W/m2
18:24 86.7 °F 69.6 °F 29.8 in East 1.7 mph 3.5 mph 56.9% 0 in 285 W/m2
18:29 86.9 °F 70 °F 29.8 in ESE 1.9 mph 3.5 mph 57.5% 0 in 285 W/m2
18:34 86.7 °F 71.1 °F 29.8 in ESE 2.2 mph 5 mph 59.7% 0 in 258 W/m2
18:39 86.5 °F 71.1 °F 29.8 in ESE 2.7 mph 5 mph 60.3% 0 in 207 W/m2
18:44 86.4 °F 71.6 °F 29.8 in SE 1.7 mph 5 mph 61.8% 0 in 190 W/m2
18:49 86.4 °F 70.5 °F 29.8 in ESE 1.4 mph 3.5 mph 59.4% 0 in 162 W/m2
18:54 86.4 °F 70.9 °F 29.8 in ESE 2.2 mph 3.5 mph 60.4% 0 in 130 W/m2
18:59 86 °F 71.2 °F 29.8 in ESE 1.8 mph 3.5 mph 61.7% 0 in 104 W/m2
19:04 85.8 °F 70.9 °F 29.8 in ESE 0.7 mph 3.5 mph 61% 0 in 90 W/m2
19:09 85.8 °F 70.7 °F 29.8 in ESE 0.3 mph 2.3 mph 60.5% 0 in 84 W/m2
19:14 85.8 °F 70.7 °F 29.8 in SE 0.1 mph 2.3 mph 60.7% 0 in 72 W/m2
19:19 85.5 °F 70.7 °F 29.8 in SSW 0.3 mph 2.3 mph 61.4% 0 in 72 W/m2
19:24 85.6 °F 70.9 °F 29.8 in SSW 0.4 mph 2.3 mph 61.5% 0 in 62 W/m2
19:29 85.5 °F 71.4 °F 29.8 in SSW 0.2 mph 2.3 mph 63% 0 in 54 W/m2
19:34 84.9 °F 72 °F 29.8 in SSW 0.3 mph 1.2 mph 65.1% 0 in 54 W/m2
19:39 84.7 °F 71.6 °F 29.8 in Calm   1.2 mph 65.3% 0 in 46 W/m2
19:44 84.4 °F 71.6 °F 29.8 in SSW 0.1 mph 1.2 mph 65.7% 0 in 33 W/m2
19:49 83.8 °F 71.2 °F 29.8 in Calm   1 mph 65.9% 0 in 21 W/m2
19:54 83.3 °F 71.6 °F 29.8 in Calm     68.1% 0 in 14 W/m2
19:59 82.8 °F 71.4 °F 29.8 in Calm     68.7% 0 in 9 W/m2
20:04 82 °F 70.7 °F 29.8 in Calm     68.6% 0 in 7 W/m2
20:09 81.7 °F 70.5 °F 29.8 in Calm     69% 0 in 0 W/m2
20:14 81.3 °F 70.5 °F 29.8 in Calm     69.7% 0 in 0 W/m2
20:19 81 °F 70.3 °F 29.8 in Calm     70% 0 in 0 W/m2
20:24 80.8 °F 70.3 °F 29.8 in Calm     70.7% 0 in 0 W/m2
20:29 80.8 °F 70.7 °F 29.8 in Calm     71.6% 0 in 0 W/m2
20:33 80.6 °F 70.7 °F 29.8 in Calm     72% 0 in 0 W/m2
20:37 80.6 °F 70.5 °F 29.8 in Calm     71.6% 0 in 0 W/m2
20:44 80.4 °F 70.5 °F 29.8 in Calm     71.6% 0 in 0 W/m2
20:49 80.4 °F 70.3 °F 29.8 in Calm     71.8% 0 in 0 W/m2
20:54 80.2 °F 70.7 °F 29.8 in Calm     72.5% 0 in 0 W/m2
20:59 80.2 °F 70.9 °F 29.8 in Calm     73% 0 in 0 W/m2
21:04 80.4 °F 70.9 °F 29.8 in Calm     73.1% 0 in 0 W/m2
21:09 80.1 °F 71.2 °F 29.8 in Calm     74.4% 0 in 0 W/m2
21:14 79.7 °F 71.2 °F 29.8 in Calm     75% 0 in 0 W/m2
21:19 79.5 °F 71.1 °F 29.8 in Calm     75.8% 0 in 0 W/m2
21:24 79.2 °F 70.9 °F 29.8 in Calm     75.5% 0 in 0 W/m2
21:29 79.2 °F 70.7 °F 29.8 in Calm     75.1% 0 in 0 W/m2
21:34 79 °F 70.7 °F 29.8 in Calm     76% 0 in 0 W/m2
21:39 78.8 °F 70.3 °F 29.8 in Calm     75.5% 0 in 0 W/m2
21:44 78.4 °F 70 °F 29.8 in Calm     75% 0 in 0 W/m2
21:49 78.3 °F 69.4 °F 29.8 in Calm     74.4% 0 in 0 W/m2
21:54 78.1 °F 69.1 °F 29.8 in Calm     74% 0 in 0 W/m2
21:59 77.9 °F 68.5 °F 29.8 in Calm     73.2% 0 in 0 W/m2
22:04 77.7 °F 69.1 °F 29.8 in SSW 0.1 mph 2.3 mph 74.8% 0 in 0 W/m2
22:09 77.4 °F 69.4 °F 29.8 in SSW 0.5 mph 2.3 mph 76.5% 0 in 0 W/m2
22:14 77.4 °F 69.4 °F 29.8 in SSW 0.3 mph 2 mph 77% 0 in 0 W/m2
22:19 77.4 °F 69.4 °F 29.8 in SSW 0.3 mph 1.2 mph 76.8% 0 in 0 W/m2
22:24 77.4 °F 69.6 °F 29.8 in Calm   1 mph 77% 0 in 0 W/m2
22:29 77.4 °F 69.3 °F 29.8 in SSW 0.1 mph 1.2 mph 76.5% 0 in 0 W/m2
22:34 77.4 °F 69.4 °F 29.8 in SSW 0.4 mph 1.2 mph 77% 0 in 0 W/m2
22:39 77.4 °F 69.6 °F 29.8 in SSW 0.2 mph 1.2 mph 77% 0 in 0 W/m2
22:44 77.4 °F 69.8 °F 29.8 in Calm   1.2 mph 77.6% 0 in 0 W/m2
22:49 77.2 °F 69.6 °F 29.8 in WSW 1 mph 4 mph 77.8% 0 in 0 W/m2
22:54 76.5 °F 69.1 °F 29.8 in WSW 2.4 mph 4 mph 78.2% 0 in 0 W/m2
22:59 76.5 °F 69.1 °F 29.8 in WSW 1.4 mph 3 mph 78.2% 0 in 0 W/m2
23:04 76.5 °F 69.1 °F 29.8 in WSW 1.6 mph 3 mph 78% 0 in 0 W/m2
23:09 76.3 °F 68.9 °F 29.8 in WSW 2.1 mph 3.5 mph 78% 0 in 0 W/m2
23:14 76.3 °F 68.9 °F 29.8 in WSW 2.5 mph 3.5 mph 78% 0 in 0 W/m2
23:19 76.5 °F 68.7 °F 29.8 in WSW 2.2 mph 3.5 mph 77.5% 0 in 0 W/m2
23:24 76.5 °F 68.7 °F 29.8 in WSW 2 mph 4 mph 77% 0 in 0 W/m2
23:29 76.3 °F 68.9 °F 29.8 in WSW 2.1 mph 3.5 mph 77.8% 0 in 0 W/m2
23:34 76.1 °F 68.7 °F 29.8 in WSW 2.1 mph 4 mph 78% 0 in 0 W/m2
23:39 75.7 °F 68.7 °F 29.8 in WSW 2.8 mph 4 mph 79% 0 in 0 W/m2
23:44 75.6 °F 68.9 °F 29.8 in WSW 2.4 mph 4 mph 79.8% 0 in 0 W/m2
23:49 75.4 °F 68.9 °F 29.8 in West 2 mph 3.5 mph 80% 0 in 0 W/m2
23:54 75.4 °F 68.7 °F 29.8 in WSW 1.7 mph 3.5 mph 80% 0 in 0 W/m2
23:59 75.4 °F 68.7 °F 29.8 in West 1.7 mph 4 mph 80% 0 in 0 W/m2
Stazione Meteorologica MeteoMincio Rivalta s/M (MN)
Con i complimenti di Weather Underground - 4 mb


METEO PILLOLE
I venti più violenti (escluso i tornado)
Mount Washington - New Hampshire
Il 12 aprile 1934 furono misurate raffiche a oltre 372 Km/h.

Do NOT follow this link or you will be banned from the site!